sensor_id;sensor_type;location;lat;lon;timestamp;temperature;humidity
18611;DHT22;9435;52.122;5.502;2023-06-14T00:01:57;18.60;99.90
18611;DHT22;9435;52.122;5.502;2023-06-14T00:04:24;18.50;99.90
18611;DHT22;9435;52.122;5.502;2023-06-14T00:06:52;18.60;99.90
18611;DHT22;9435;52.122;5.502;2023-06-14T00:09:19;18.60;99.90
18611;DHT22;9435;52.122;5.502;2023-06-14T00:11:46;18.50;99.90
18611;DHT22;9435;52.122;5.502;2023-06-14T00:14:15;18.50;99.90
18611;DHT22;9435;52.122;5.502;2023-06-14T00:16:42;18.40;99.90
18611;DHT22;9435;52.122;5.502;2023-06-14T00:19:09;18.50;99.90
18611;DHT22;9435;52.122;5.502;2023-06-14T00:21:36;18.40;99.90
18611;DHT22;9435;52.122;5.502;2023-06-14T00:24:04;18.40;99.90
18611;DHT22;9435;52.122;5.502;2023-06-14T00:26:31;18.40;99.90
18611;DHT22;9435;52.122;5.502;2023-06-14T00:28:58;18.40;99.90
18611;DHT22;9435;52.122;5.502;2023-06-14T00:31:27;18.30;99.90
18611;DHT22;9435;52.122;5.502;2023-06-14T00:33:54;18.30;99.90
18611;DHT22;9435;52.122;5.502;2023-06-14T00:36:21;18.20;99.90
18611;DHT22;9435;52.122;5.502;2023-06-14T00:38:48;18.20;99.90
18611;DHT22;9435;52.122;5.502;2023-06-14T00:41:15;18.20;99.90
18611;DHT22;9435;52.122;5.502;2023-06-14T00:43:42;18.20;99.90
18611;DHT22;9435;52.122;5.502;2023-06-14T00:46:10;18.20;99.90
18611;DHT22;9435;52.122;5.502;2023-06-14T00:48:39;18.10;99.90
18611;DHT22;9435;52.122;5.502;2023-06-14T00:51:06;18.00;99.90
18611;DHT22;9435;52.122;5.502;2023-06-14T00:53:34;18.00;99.90
18611;DHT22;9435;52.122;5.502;2023-06-14T00:56:01;18.00;99.90
18611;DHT22;9435;52.122;5.502;2023-06-14T00:58:29;17.90;99.90
18611;DHT22;9435;52.122;5.502;2023-06-14T01:00:57;17.90;99.90
18611;DHT22;9435;52.122;5.502;2023-06-14T01:03:24;17.80;99.90
18611;DHT22;9435;52.122;5.502;2023-06-14T01:06:04;17.80;99.90
18611;DHT22;9435;52.122;5.502;2023-06-14T01:08:44;17.70;99.90
18611;DHT22;9435;52.122;5.502;2023-06-14T01:11:22;17.70;99.90
18611;DHT22;9435;52.122;5.502;2023-06-14T01:13:52;17.60;99.90
18611;DHT22;9435;52.122;5.502;2023-06-14T01:16:20;17.60;99.90
18611;DHT22;9435;52.122;5.502;2023-06-14T01:18:47;17.50;99.90
18611;DHT22;9435;52.122;5.502;2023-06-14T01:21:23;17.50;99.90
18611;DHT22;9435;52.122;5.502;2023-06-14T01:23:52;17.40;99.90
18611;DHT22;9435;52.122;5.502;2023-06-14T01:26:20;17.40;99.90
18611;DHT22;9435;52.122;5.502;2023-06-14T01:28:48;17.40;99.90
18611;DHT22;9435;52.122;5.502;2023-06-14T01:31:19;17.40;99.90
18611;DHT22;9435;52.122;5.502;2023-06-14T01:33:48;17.30;99.90
18611;DHT22;9435;52.122;5.502;2023-06-14T01:36:17;17.30;99.90
18611;DHT22;9435;52.122;5.502;2023-06-14T01:38:46;17.30;99.90
18611;DHT22;9435;52.122;5.502;2023-06-14T01:41:16;17.30;99.90
18611;DHT22;9435;52.122;5.502;2023-06-14T01:43:43;17.20;99.90
18611;DHT22;9435;52.122;5.502;2023-06-14T01:46:13;17.20;99.90
18611;DHT22;9435;52.122;5.502;2023-06-14T01:48:41;17.10;99.90
18611;DHT22;9435;52.122;5.502;2023-06-14T01:51:08;17.10;99.90
18611;DHT22;9435;52.122;5.502;2023-06-14T01:53:35;17.10;99.90
18611;DHT22;9435;52.122;5.502;2023-06-14T01:56:02;17.00;99.90
18611;DHT22;9435;52.122;5.502;2023-06-14T01:58:31;17.00;99.90
18611;DHT22;9435;52.122;5.502;2023-06-14T02:00:58;17.00;99.90
18611;DHT22;9435;52.122;5.502;2023-06-14T02:03:26;16.90;99.90
18611;DHT22;9435;52.122;5.502;2023-06-14T02:05:53;16.80;99.90
18611;DHT22;9435;52.122;5.502;2023-06-14T02:08:21;16.80;99.90
18611;DHT22;9435;52.122;5.502;2023-06-14T02:10:48;16.80;99.90
18611;DHT22;9435;52.122;5.502;2023-06-14T02:13:15;16.80;99.90
18611;DHT22;9435;52.122;5.502;2023-06-14T02:15:43;16.80;99.90
18611;DHT22;9435;52.122;5.502;2023-06-14T02:18:11;16.80;99.90
18611;DHT22;9435;52.122;5.502;2023-06-14T02:20:38;16.80;99.90
18611;DHT22;9435;52.122;5.502;2023-06-14T02:23:05;16.70;99.90
18611;DHT22;9435;52.122;5.502;2023-06-14T02:25:33;16.70;99.90
18611;DHT22;9435;52.122;5.502;2023-06-14T02:28:02;16.70;99.90
18611;DHT22;9435;52.122;5.502;2023-06-14T02:30:29;16.70;99.90
18611;DHT22;9435;52.122;5.502;2023-06-14T02:32:58;16.70;99.90
18611;DHT22;9435;52.122;5.502;2023-06-14T02:35:25;16.70;99.90
18611;DHT22;9435;52.122;5.502;2023-06-14T02:37:53;16.60;99.90
18611;DHT22;9435;52.122;5.502;2023-06-14T02:40:20;16.60;99.90
18611;DHT22;9435;52.122;5.502;2023-06-14T02:42:47;16.40;99.90
18611;DHT22;9435;52.122;5.502;2023-06-14T02:45:14;16.40;99.90
18611;DHT22;9435;52.122;5.502;2023-06-14T02:47:41;16.40;99.90
18611;DHT22;9435;52.122;5.502;2023-06-14T02:50:10;16.40;99.90
18611;DHT22;9435;52.122;5.502;2023-06-14T02:52:37;16.40;99.90
18611;DHT22;9435;52.122;5.502;2023-06-14T02:55:07;16.30;99.90
18611;DHT22;9435;52.122;5.502;2023-06-14T02:57:35;16.20;99.90
18611;DHT22;9435;52.122;5.502;2023-06-14T03:00:03;16.10;99.90
18611;DHT22;9435;52.122;5.502;2023-06-14T03:02:30;16.10;99.90
18611;DHT22;9435;52.122;5.502;2023-06-14T03:04:57;16.10;99.90
18611;DHT22;9435;52.122;5.502;2023-06-14T03:07:28;16.00;99.90
18611;DHT22;9435;52.122;5.502;2023-06-14T03:09:55;16.00;99.90
18611;DHT22;9435;52.122;5.502;2023-06-14T03:12:22;16.10;99.90
18611;DHT22;9435;52.122;5.502;2023-06-14T03:14:50;16.00;99.90
18611;DHT22;9435;52.122;5.502;2023-06-14T03:17:17;15.90;99.90
18611;DHT22;9435;52.122;5.502;2023-06-14T03:19:45;15.80;99.90
18611;DHT22;9435;52.122;5.502;2023-06-14T03:22:12;15.80;99.90
18611;DHT22;9435;52.122;5.502;2023-06-14T03:24:40;15.80;99.90
18611;DHT22;9435;52.122;5.502;2023-06-14T03:27:08;15.80;99.90
18611;DHT22;9435;52.122;5.502;2023-06-14T03:29:36;15.80;99.90
18611;DHT22;9435;52.122;5.502;2023-06-14T03:32:03;15.90;99.90
18611;DHT22;9435;52.122;5.502;2023-06-14T03:34:31;15.90;99.90
18611;DHT22;9435;52.122;5.502;2023-06-14T03:36:58;15.90;99.90
18611;DHT22;9435;52.122;5.502;2023-06-14T03:39:25;15.80;99.90
18611;DHT22;9435;52.122;5.502;2023-06-14T03:41:53;15.80;99.90
18611;DHT22;9435;52.122;5.502;2023-06-14T03:44:21;15.70;99.90
18611;DHT22;9435;52.122;5.502;2023-06-14T03:46:48;15.70;99.90
18611;DHT22;9435;52.122;5.502;2023-06-14T03:49:15;15.60;99.90
18611;DHT22;9435;52.122;5.502;2023-06-14T03:51:42;15.70;99.90
18611;DHT22;9435;52.122;5.502;2023-06-14T03:54:10;15.70;99.90
18611;DHT22;9435;52.122;5.502;2023-06-14T03:56:37;15.70;99.90
18611;DHT22;9435;52.122;5.502;2023-06-14T03:59:06;15.80;99.90
18611;DHT22;9435;52.122;5.502;2023-06-14T04:01:33;15.80;99.90
18611;DHT22;9435;52.122;5.502;2023-06-14T04:04:02;15.70;99.90
18611;DHT22;9435;52.122;5.502;2023-06-14T04:06:29;15.70;99.90
18611;DHT22;9435;52.122;5.502;2023-06-14T04:08:59;15.70;99.90
18611;DHT22;9435;52.122;5.502;2023-06-14T04:11:29;15.70;99.90
18611;DHT22;9435;52.122;5.502;2023-06-14T04:13:58;15.70;99.90
18611;DHT22;9435;52.122;5.502;2023-06-14T04:16:26;15.80;99.90
18611;DHT22;9435;52.122;5.502;2023-06-14T04:18:54;15.90;99.90
18611;DHT22;9435;52.122;5.502;2023-06-14T04:21:23;15.90;99.90
18611;DHT22;9435;52.122;5.502;2023-06-14T04:23:53;16.10;99.90
18611;DHT22;9435;52.122;5.502;2023-06-14T04:26:21;16.20;99.90
18611;DHT22;9435;52.122;5.502;2023-06-14T04:28:49;16.40;99.90
18611;DHT22;9435;52.122;5.502;2023-06-14T04:31:17;16.40;99.90
18611;DHT22;9435;52.122;5.502;2023-06-14T04:33:45;16.50;99.90
18611;DHT22;9435;52.122;5.502;2023-06-14T04:36:13;16.60;99.90
18611;DHT22;9435;52.122;5.502;2023-06-14T04:38:43;16.70;99.90
18611;DHT22;9435;52.122;5.502;2023-06-14T04:41:12;16.80;99.90
18611;DHT22;9435;52.122;5.502;2023-06-14T04:43:39;16.80;99.90
18611;DHT22;9435;52.122;5.502;2023-06-14T04:46:08;16.90;99.90
18611;DHT22;9435;52.122;5.502;2023-06-14T04:48:37;16.80;99.90
18611;DHT22;9435;52.122;5.502;2023-06-14T04:51:06;16.70;99.90
18611;DHT22;9435;52.122;5.502;2023-06-14T04:53:34;16.90;99.90
18611;DHT22;9435;52.122;5.502;2023-06-14T04:56:01;16.90;99.90
18611;DHT22;9435;52.122;5.502;2023-06-14T04:58:28;17.00;99.90
18611;DHT22;9435;52.122;5.502;2023-06-14T05:00:56;17.00;99.90
18611;DHT22;9435;52.122;5.502;2023-06-14T05:03:24;17.00;99.90
18611;DHT22;9435;52.122;5.502;2023-06-14T05:05:52;17.10;99.90
18611;DHT22;9435;52.122;5.502;2023-06-14T05:08:21;17.10;99.90
18611;DHT22;9435;52.122;5.502;2023-06-14T05:10:50;17.00;99.90
18611;DHT22;9435;52.122;5.502;2023-06-14T05:13:17;17.00;99.90
18611;DHT22;9435;52.122;5.502;2023-06-14T05:15:44;17.10;99.90
18611;DHT22;9435;52.122;5.502;2023-06-14T05:18:12;17.10;99.90
18611;DHT22;9435;52.122;5.502;2023-06-14T05:20:40;17.20;99.90
18611;DHT22;9435;52.122;5.502;2023-06-14T05:23:08;17.40;99.90
18611;DHT22;9435;52.122;5.502;2023-06-14T05:25:42;17.30;99.90
18611;DHT22;9435;52.122;5.502;2023-06-14T05:28:09;17.50;99.90
18611;DHT22;9435;52.122;5.502;2023-06-14T05:30:38;17.60;99.90
18611;DHT22;9435;52.122;5.502;2023-06-14T05:33:05;17.80;99.90
18611;DHT22;9435;52.122;5.502;2023-06-14T05:35:33;17.90;99.90
18611;DHT22;9435;52.122;5.502;2023-06-14T05:38:00;18.10;99.90
18611;DHT22;9435;52.122;5.502;2023-06-14T05:40:27;18.20;99.90
18611;DHT22;9435;52.122;5.502;2023-06-14T05:42:55;18.30;99.90
18611;DHT22;9435;52.122;5.502;2023-06-14T05:45:22;18.40;99.90
18611;DHT22;9435;52.122;5.502;2023-06-14T05:47:49;18.40;99.90
18611;DHT22;9435;52.122;5.502;2023-06-14T05:50:17;18.40;99.90
18611;DHT22;9435;52.122;5.502;2023-06-14T05:52:44;18.60;99.90
18611;DHT22;9435;52.122;5.502;2023-06-14T05:55:11;18.80;99.90
18611;DHT22;9435;52.122;5.502;2023-06-14T05:57:39;19.00;99.90
18611;DHT22;9435;52.122;5.502;2023-06-14T06:00:08;19.00;99.90
18611;DHT22;9435;52.122;5.502;2023-06-14T06:02:40;19.30;99.90
18611;DHT22;9435;52.122;5.502;2023-06-14T06:05:08;19.30;99.90
18611;DHT22;9435;52.122;5.502;2023-06-14T06:07:35;19.50;99.90
18611;DHT22;9435;52.122;5.502;2023-06-14T06:10:03;19.80;99.90
18611;DHT22;9435;52.122;5.502;2023-06-14T06:12:30;20.00;99.90
18611;DHT22;9435;52.122;5.502;2023-06-14T06:14:58;20.20;99.90
18611;DHT22;9435;52.122;5.502;2023-06-14T06:17:27;20.60;99.90
18611;DHT22;9435;52.122;5.502;2023-06-14T06:19:54;20.70;99.90
18611;DHT22;9435;52.122;5.502;2023-06-14T06:22:21;20.50;99.90
18611;DHT22;9435;52.122;5.502;2023-06-14T06:24:48;20.90;99.90
18611;DHT22;9435;52.122;5.502;2023-06-14T06:27:15;20.70;99.90
18611;DHT22;9435;52.122;5.502;2023-06-14T06:29:44;20.70;99.90
18611;DHT22;9435;52.122;5.502;2023-06-14T06:32:11;20.70;99.90
18611;DHT22;9435;52.122;5.502;2023-06-14T06:34:40;20.90;99.90
18611;DHT22;9435;52.122;5.502;2023-06-14T06:37:07;21.10;99.90
18611;DHT22;9435;52.122;5.502;2023-06-14T06:39:34;21.30;99.90
18611;DHT22;9435;52.122;5.502;2023-06-14T06:42:01;21.30;99.90
18611;DHT22;9435;52.122;5.502;2023-06-14T06:44:28;21.40;99.90
18611;DHT22;9435;52.122;5.502;2023-06-14T06:46:57;21.90;99.90
18611;DHT22;9435;52.122;5.502;2023-06-14T06:49:24;22.40;99.90
18611;DHT22;9435;52.122;5.502;2023-06-14T06:52:02;22.20;99.90
18611;DHT22;9435;52.122;5.502;2023-06-14T06:54:30;22.40;99.90
18611;DHT22;9435;52.122;5.502;2023-06-14T06:56:57;22.50;99.90
18611;DHT22;9435;52.122;5.502;2023-06-14T06:59:24;22.60;99.90
18611;DHT22;9435;52.122;5.502;2023-06-14T07:01:51;22.60;99.90
18611;DHT22;9435;52.122;5.502;2023-06-14T07:04:18;22.70;99.90
18611;DHT22;9435;52.122;5.502;2023-06-14T07:06:46;22.50;99.90
18611;DHT22;9435;52.122;5.502;2023-06-14T07:09:15;22.30;99.90
18611;DHT22;9435;52.122;5.502;2023-06-14T07:11:44;22.60;99.90
18611;DHT22;9435;52.122;5.502;2023-06-14T07:14:11;22.90;99.90
18611;DHT22;9435;52.122;5.502;2023-06-14T07:16:38;23.10;99.90
18611;DHT22;9435;52.122;5.502;2023-06-14T07:19:06;23.10;99.90
18611;DHT22;9435;52.122;5.502;2023-06-14T07:21:34;23.30;99.90
18611;DHT22;9435;52.122;5.502;2023-06-14T07:24:04;23.50;99.90
18611;DHT22;9435;52.122;5.502;2023-06-14T07:26:33;23.30;99.90
18611;DHT22;9435;52.122;5.502;2023-06-14T07:29:00;23.50;99.90
18611;DHT22;9435;52.122;5.502;2023-06-14T07:31:27;23.50;99.90
18611;DHT22;9435;52.122;5.502;2023-06-14T07:33:55;23.30;99.90
18611;DHT22;9435;52.122;5.502;2023-06-14T07:36:22;23.20;99.90
18611;DHT22;9435;52.122;5.502;2023-06-14T07:38:49;23.20;99.90
18611;DHT22;9435;52.122;5.502;2023-06-14T07:41:16;23.20;99.90
18611;DHT22;9435;52.122;5.502;2023-06-14T07:43:44;23.40;99.90
18611;DHT22;9435;52.122;5.502;2023-06-14T07:46:11;23.40;99.90
18611;DHT22;9435;52.122;5.502;2023-06-14T07:48:39;23.40;99.90
18611;DHT22;9435;52.122;5.502;2023-06-14T07:51:06;23.40;99.90
18611;DHT22;9435;52.122;5.502;2023-06-14T07:53:33;23.30;99.90
18611;DHT22;9435;52.122;5.502;2023-06-14T07:56:00;23.20;99.90
18611;DHT22;9435;52.122;5.502;2023-06-14T07:58:28;23.50;99.90
18611;DHT22;9435;52.122;5.502;2023-06-14T08:00:56;24.10;99.90
18611;DHT22;9435;52.122;5.502;2023-06-14T08:03:23;24.00;99.90
18611;DHT22;9435;52.122;5.502;2023-06-14T08:05:50;24.30;99.90
18611;DHT22;9435;52.122;5.502;2023-06-14T08:08:18;24.10;99.90
18611;DHT22;9435;52.122;5.502;2023-06-14T08:10:45;24.30;99.90
18611;DHT22;9435;52.122;5.502;2023-06-14T08:13:12;24.10;99.90
18611;DHT22;9435;52.122;5.502;2023-06-14T08:15:39;24.30;99.90
18611;DHT22;9435;52.122;5.502;2023-06-14T08:18:08;24.40;99.90
18611;DHT22;9435;52.122;5.502;2023-06-14T08:20:35;24.40;99.90
18611;DHT22;9435;52.122;5.502;2023-06-14T08:23:03;24.30;99.90
18611;DHT22;9435;52.122;5.502;2023-06-14T08:25:30;24.70;99.90
18611;DHT22;9435;52.122;5.502;2023-06-14T08:27:58;25.00;99.90
18611;DHT22;9435;52.122;5.502;2023-06-14T08:30:26;24.60;99.90
18611;DHT22;9435;52.122;5.502;2023-06-14T08:32:53;24.90;99.90
18611;DHT22;9435;52.122;5.502;2023-06-14T08:35:23;24.90;99.90
18611;DHT22;9435;52.122;5.502;2023-06-14T08:37:50;25.30;99.90
18611;DHT22;9435;52.122;5.502;2023-06-14T08:40:22;25.00;99.90
18611;DHT22;9435;52.122;5.502;2023-06-14T08:42:52;25.30;99.90
18611;DHT22;9435;52.122;5.502;2023-06-14T08:45:19;25.40;99.90
18611;DHT22;9435;52.122;5.502;2023-06-14T08:47:47;25.20;99.90
18611;DHT22;9435;52.122;5.502;2023-06-14T08:50:20;25.10;99.90
18611;DHT22;9435;52.122;5.502;2023-06-14T08:52:53;25.10;99.90
18611;DHT22;9435;52.122;5.502;2023-06-14T08:55:21;24.90;99.90
18611;DHT22;9435;52.122;5.502;2023-06-14T08:57:51;24.70;99.90
18611;DHT22;9435;52.122;5.502;2023-06-14T09:00:35;25.10;99.90
18611;DHT22;9435;52.122;5.502;2023-06-14T09:03:04;24.90;99.90
18611;DHT22;9435;52.122;5.502;2023-06-14T09:05:47;24.80;99.90
18611;DHT22;9435;52.122;5.502;2023-06-14T09:08:42;25.00;99.90
18611;DHT22;9435;52.122;5.502;2023-06-14T09:11:23;25.30;99.90
18611;DHT22;9435;52.122;5.502;2023-06-14T09:14:03;25.90;99.90
18611;DHT22;9435;52.122;5.502;2023-06-14T09:16:37;26.20;99.90
18611;DHT22;9435;52.122;5.502;2023-06-14T09:19:05;25.90;99.90
18611;DHT22;9435;52.122;5.502;2023-06-14T09:21:34;26.20;99.90
18611;DHT22;9435;52.122;5.502;2023-06-14T09:24:05;26.00;99.90
18611;DHT22;9435;52.122;5.502;2023-06-14T09:26:32;26.00;99.90
18611;DHT22;9435;52.122;5.502;2023-06-14T09:29:11;26.20;99.90
18611;DHT22;9435;52.122;5.502;2023-06-14T09:32:32;25.40;99.90
18611;DHT22;9435;52.122;5.502;2023-06-14T09:34:47;25.30;99.90
18611;DHT22;9435;52.122;5.502;2023-06-14T09:37:32;25.20;99.90
18611;DHT22;9435;52.122;5.502;2023-06-14T09:40:01;25.40;99.90
18611;DHT22;9435;52.122;5.502;2023-06-14T09:42:30;25.40;99.90
18611;DHT22;9435;52.122;5.502;2023-06-14T09:44:57;25.40;99.90
18611;DHT22;9435;52.122;5.502;2023-06-14T09:47:24;25.40;99.90
18611;DHT22;9435;52.122;5.502;2023-06-14T09:49:52;25.60;99.90
18611;DHT22;9435;52.122;5.502;2023-06-14T09:52:21;25.90;99.90
18611;DHT22;9435;52.122;5.502;2023-06-14T09:54:52;26.20;99.90
18611;DHT22;9435;52.122;5.502;2023-06-14T09:57:23;26.20;99.90
18611;DHT22;9435;52.122;5.502;2023-06-14T09:59:55;25.90;99.90
18611;DHT22;9435;52.122;5.502;2023-06-14T10:02:26;25.40;99.90
18611;DHT22;9435;52.122;5.502;2023-06-14T10:05:01;25.00;99.90
18611;DHT22;9435;52.122;5.502;2023-06-14T10:07:35;25.60;99.90
18611;DHT22;9435;52.122;5.502;2023-06-14T10:10:03;25.40;99.90
18611;DHT22;9435;52.122;5.502;2023-06-14T10:12:32;25.40;99.90
18611;DHT22;9435;52.122;5.502;2023-06-14T10:14:59;25.80;99.90
18611;DHT22;9435;52.122;5.502;2023-06-14T10:17:35;25.70;99.30
18611;DHT22;9435;52.122;5.502;2023-06-14T10:20:21;25.50;99.30
18611;DHT22;9435;52.122;5.502;2023-06-14T10:22:51;25.30;98.70
18611;DHT22;9435;52.122;5.502;2023-06-14T10:25:26;25.80;98.70
18611;DHT22;9435;52.122;5.502;2023-06-14T10:31:04;26.40;99.50
18611;DHT22;9435;52.122;5.502;2023-06-14T10:33:31;26.40;99.50
18611;DHT22;9435;52.122;5.502;2023-06-14T10:36:09;25.70;99.90
18611;DHT22;9435;52.122;5.502;2023-06-14T10:38:37;26.30;99.90
18611;DHT22;9435;52.122;5.502;2023-06-14T10:41:05;26.60;99.70
18611;DHT22;9435;52.122;5.502;2023-06-14T10:43:34;26.10;99.90
18611;DHT22;9435;52.122;5.502;2023-06-14T10:46:17;25.90;99.90
18611;DHT22;9435;52.122;5.502;2023-06-14T10:48:48;25.60;99.90
18611;DHT22;9435;52.122;5.502;2023-06-14T10:51:17;25.90;99.90
18611;DHT22;9435;52.122;5.502;2023-06-14T10:53:46;26.20;99.90
18611;DHT22;9435;52.122;5.502;2023-06-14T10:56:24;26.40;99.90
18611;DHT22;9435;52.122;5.502;2023-06-14T10:58:56;25.90;99.80
18611;DHT22;9435;52.122;5.502;2023-06-14T11:01:35;25.60;99.40
18611;DHT22;9435;52.122;5.502;2023-06-14T11:04:12;25.50;99.60
18611;DHT22;9435;52.122;5.502;2023-06-14T11:06:47;26.00;99.90
18611;DHT22;9435;52.122;5.502;2023-06-14T11:09:37;26.50;99.90
18611;DHT22;9435;52.122;5.502;2023-06-14T11:12:10;26.30;99.20
18611;DHT22;9435;52.122;5.502;2023-06-14T11:14:38;26.00;99.90
18611;DHT22;9435;52.122;5.502;2023-06-14T11:17:06;25.80;99.90
18611;DHT22;9435;52.122;5.502;2023-06-14T11:19:33;26.00;99.90
18611;DHT22;9435;52.122;5.502;2023-06-14T11:22:01;26.60;99.90
18611;DHT22;9435;52.122;5.502;2023-06-14T11:24:28;26.50;99.90
18611;DHT22;9435;52.122;5.502;2023-06-14T11:26:56;26.20;99.90
18611;DHT22;9435;52.122;5.502;2023-06-14T11:29:23;26.40;99.90
18611;DHT22;9435;52.122;5.502;2023-06-14T11:31:52;26.20;99.90
18611;DHT22;9435;52.122;5.502;2023-06-14T11:34:19;26.10;99.90
18611;DHT22;9435;52.122;5.502;2023-06-14T11:36:47;26.00;99.90
18611;DHT22;9435;52.122;5.502;2023-06-14T11:39:14;26.30;99.80
18611;DHT22;9435;52.122;5.502;2023-06-14T11:41:43;25.90;99.90
18611;DHT22;9435;52.122;5.502;2023-06-14T11:44:11;26.30;99.90
18611;DHT22;9435;52.122;5.502;2023-06-14T11:46:38;26.10;99.90
18611;DHT22;9435;52.122;5.502;2023-06-14T11:49:07;26.00;99.90
18611;DHT22;9435;52.122;5.502;2023-06-14T11:51:35;25.80;99.90
18611;DHT22;9435;52.122;5.502;2023-06-14T11:54:03;26.10;99.90
18611;DHT22;9435;52.122;5.502;2023-06-14T11:56:31;26.20;99.90
18611;DHT22;9435;52.122;5.502;2023-06-14T11:58:58;26.40;99.90
18611;DHT22;9435;52.122;5.502;2023-06-14T12:01:26;26.50;99.90
18611;DHT22;9435;52.122;5.502;2023-06-14T12:03:54;26.60;99.10
18611;DHT22;9435;52.122;5.502;2023-06-14T12:06:30;26.60;99.90
18611;DHT22;9435;52.122;5.502;2023-06-14T12:09:03;26.10;99.90
18611;DHT22;9435;52.122;5.502;2023-06-14T12:11:33;26.20;99.90
18611;DHT22;9435;52.122;5.502;2023-06-14T12:14:02;26.20;99.90
18611;DHT22;9435;52.122;5.502;2023-06-14T12:16:34;26.50;99.90
18611;DHT22;9435;52.122;5.502;2023-06-14T12:19:08;26.70;99.90
18611;DHT22;9435;52.122;5.502;2023-06-14T12:21:39;27.10;99.90
18611;DHT22;9435;52.122;5.502;2023-06-14T12:24:07;26.70;99.50
18611;DHT22;9435;52.122;5.502;2023-06-14T12:26:38;26.80;99.90
18611;DHT22;9435;52.122;5.502;2023-06-14T12:29:06;26.50;98.70
18611;DHT22;9435;52.122;5.502;2023-06-14T12:31:34;26.90;99.70
18611;DHT22;9435;52.122;5.502;2023-06-14T12:34:01;27.10;99.80
18611;DHT22;9435;52.122;5.502;2023-06-14T12:36:28;26.70;99.90
18611;DHT22;9435;52.122;5.502;2023-06-14T12:38:56;26.90;99.50
18611;DHT22;9435;52.122;5.502;2023-06-14T12:41:24;26.90;99.50
18611;DHT22;9435;52.122;5.502;2023-06-14T12:43:52;27.10;98.10
18611;DHT22;9435;52.122;5.502;2023-06-14T12:46:19;26.50;97.90
18611;DHT22;9435;52.122;5.502;2023-06-14T12:48:46;26.80;97.60
18611;DHT22;9435;52.122;5.502;2023-06-14T12:51:13;26.30;99.00
18611;DHT22;9435;52.122;5.502;2023-06-14T12:53:40;26.60;99.70
18611;DHT22;9435;52.122;5.502;2023-06-14T12:56:09;26.90;98.40
18611;DHT22;9435;52.122;5.502;2023-06-14T12:58:36;26.80;99.30
18611;DHT22;9435;52.122;5.502;2023-06-14T13:01:03;26.70;97.80
18611;DHT22;9435;52.122;5.502;2023-06-14T13:03:30;26.50;98.80
18611;DHT22;9435;52.122;5.502;2023-06-14T13:05:59;26.60;98.30
18611;DHT22;9435;52.122;5.502;2023-06-14T13:08:26;26.50;99.40
18611;DHT22;9435;52.122;5.502;2023-06-14T13:10:53;26.60;99.90
18611;DHT22;9435;52.122;5.502;2023-06-14T13:13:22;25.90;97.90
18611;DHT22;9435;52.122;5.502;2023-06-14T13:15:50;26.20;98.20
18611;DHT22;9435;52.122;5.502;2023-06-14T13:18:17;26.50;99.80
18611;DHT22;9435;52.122;5.502;2023-06-14T13:20:45;26.20;99.40
18611;DHT22;9435;52.122;5.502;2023-06-14T13:23:12;26.40;99.90
18611;DHT22;9435;52.122;5.502;2023-06-14T13:25:40;26.40;99.90
18611;DHT22;9435;52.122;5.502;2023-06-14T13:28:07;25.90;99.90
18611;DHT22;9435;52.122;5.502;2023-06-14T13:30:36;26.30;99.90
18611;DHT22;9435;52.122;5.502;2023-06-14T13:33:04;26.70;99.90
18611;DHT22;9435;52.122;5.502;2023-06-14T13:35:31;27.20;99.20
18611;DHT22;9435;52.122;5.502;2023-06-14T13:37:58;26.80;99.80
18611;DHT22;9435;52.122;5.502;2023-06-14T13:40:25;27.00;99.90
18611;DHT22;9435;52.122;5.502;2023-06-14T13:42:52;26.90;99.70
18611;DHT22;9435;52.122;5.502;2023-06-14T13:45:19;27.30;99.90
18611;DHT22;9435;52.122;5.502;2023-06-14T13:47:47;27.50;98.90
18611;DHT22;9435;52.122;5.502;2023-06-14T13:50:17;27.40;99.10
18611;DHT22;9435;52.122;5.502;2023-06-14T13:52:45;27.40;99.80
18611;DHT22;9435;52.122;5.502;2023-06-14T13:55:12;27.30;99.60
18611;DHT22;9435;52.122;5.502;2023-06-14T13:57:40;27.30;99.90
18611;DHT22;9435;52.122;5.502;2023-06-14T14:00:08;26.40;99.00
18611;DHT22;9435;52.122;5.502;2023-06-14T14:02:35;26.10;99.90
18611;DHT22;9435;52.122;5.502;2023-06-14T14:05:11;26.20;99.90
18611;DHT22;9435;52.122;5.502;2023-06-14T14:07:38;26.30;99.50
18611;DHT22;9435;52.122;5.502;2023-06-14T14:10:06;26.30;99.70
18611;DHT22;9435;52.122;5.502;2023-06-14T14:12:34;26.10;98.50
18611;DHT22;9435;52.122;5.502;2023-06-14T14:15:01;26.30;99.90
18611;DHT22;9435;52.122;5.502;2023-06-14T14:17:28;26.80;98.70
18611;DHT22;9435;52.122;5.502;2023-06-14T14:19:55;26.40;98.30
18611;DHT22;9435;52.122;5.502;2023-06-14T14:22:23;26.70;98.80
18611;DHT22;9435;52.122;5.502;2023-06-14T14:24:50;26.60;98.60
18611;DHT22;9435;52.122;5.502;2023-06-14T14:27:17;26.70;98.60
18611;DHT22;9435;52.122;5.502;2023-06-14T14:29:45;26.50;98.70
18611;DHT22;9435;52.122;5.502;2023-06-14T14:32:12;26.50;98.50
18611;DHT22;9435;52.122;5.502;2023-06-14T14:34:40;26.20;98.30
18611;DHT22;9435;52.122;5.502;2023-06-14T14:37:07;26.10;99.30
18611;DHT22;9435;52.122;5.502;2023-06-14T14:39:37;26.10;98.60
18611;DHT22;9435;52.122;5.502;2023-06-14T14:42:04;26.00;98.40
18611;DHT22;9435;52.122;5.502;2023-06-14T14:44:33;26.00;98.40
18611;DHT22;9435;52.122;5.502;2023-06-14T14:47:00;26.00;99.00
18611;DHT22;9435;52.122;5.502;2023-06-14T14:49:28;25.90;97.60
18611;DHT22;9435;52.122;5.502;2023-06-14T14:51:55;25.80;97.10
18611;DHT22;9435;52.122;5.502;2023-06-14T14:54:22;26.00;98.80
18611;DHT22;9435;52.122;5.502;2023-06-14T14:56:52;26.10;98.00
18611;DHT22;9435;52.122;5.502;2023-06-14T14:59:19;26.60;99.10
18611;DHT22;9435;52.122;5.502;2023-06-14T15:01:47;26.60;98.40
18611;DHT22;9435;52.122;5.502;2023-06-14T15:04:15;26.50;98.00
18611;DHT22;9435;52.122;5.502;2023-06-14T15:06:42;26.70;97.90
18611;DHT22;9435;52.122;5.502;2023-06-14T15:09:09;26.60;98.30
18611;DHT22;9435;52.122;5.502;2023-06-14T15:11:36;26.60;98.10
18611;DHT22;9435;52.122;5.502;2023-06-14T15:14:04;26.50;98.80
18611;DHT22;9435;52.122;5.502;2023-06-14T15:16:31;26.40;98.80
18611;DHT22;9435;52.122;5.502;2023-06-14T15:18:59;26.50;99.00
18611;DHT22;9435;52.122;5.502;2023-06-14T15:21:26;26.60;99.50
18611;DHT22;9435;52.122;5.502;2023-06-14T15:23:53;26.50;99.90
18611;DHT22;9435;52.122;5.502;2023-06-14T15:26:20;26.10;99.90
18611;DHT22;9435;52.122;5.502;2023-06-14T15:28:49;26.30;99.90
18611;DHT22;9435;52.122;5.502;2023-06-14T15:31:17;26.10;99.90
18611;DHT22;9435;52.122;5.502;2023-06-14T15:33:45;26.20;99.90
18611;DHT22;9435;52.122;5.502;2023-06-14T15:36:12;26.10;99.30
18611;DHT22;9435;52.122;5.502;2023-06-14T15:38:39;25.90;99.40
18611;DHT22;9435;52.122;5.502;2023-06-14T15:41:06;25.50;99.70
18611;DHT22;9435;52.122;5.502;2023-06-14T15:43:33;25.50;99.80
18611;DHT22;9435;52.122;5.502;2023-06-14T15:46:00;25.90;99.90
18611;DHT22;9435;52.122;5.502;2023-06-14T15:48:29;26.20;99.10
18611;DHT22;9435;52.122;5.502;2023-06-14T15:50:56;26.20;99.90
18611;DHT22;9435;52.122;5.502;2023-06-14T15:53:23;26.20;99.70
18611;DHT22;9435;52.122;5.502;2023-06-14T15:55:50;26.30;99.90
18611;DHT22;9435;52.122;5.502;2023-06-14T15:58:17;26.30;99.90